Main page
METAR-TAF:

METAR-TAF

Airports :

Oxford Airport

Oxford, England

latitude: 51-50-13N, longitude: 1-19-12W, elevation: 82 m

Current weather observation

The report was made 15 minutes ago, at 11:20 UTC
Wind 10 kt from the West/Southwest, varying between Southwest and West/Northwest
Temperature 20°C
Humidity 49%
Pressure 1011 hPa
Visibility 10 km or more
Scattered clouds at a height of 4300 ft

METAR: EGTK 141120Z 24010KT 220V290 9999 SCT043 20/09 Q1011

Time: 12:35 (11:35 UTC)

Forecast

The report was made 3 hours and 38 minutes ago, at 07:57 UTC
Forecast valid from 14 at 09 UTC to 14 at 18 UTC
Wind 4 kt from the Southwest
Visibility 10 km or more
Few clouds at a height of 2500 ft

TAF: EGTK 140757Z 1409/1418 22004KT 9999 FEW025

Weather observations and forecasts of more than 4000 airports (METAR and TAF reports).

The available stations are represented by yellow and red dots on the map.

Hover mouse over dot to see the name of the station.

Then click to see weather observations and forecasts.

To change the map : click on the green buttons with a black cross to zoom in, on the green button with a dash to zoom out, or on the green arrows for adjacent maps.


METAR-TAF: